ADDS METAR Data INFO
IDs: Format: Raw Decoded Include TAF

Data at: 1506 UTC 23 Oct 2017

PAAK 231456Z AUTO 29011KT 10SM FEW027 SCT060 02/M03 A3001 RMK AO2 SLP163 60000 T00171028 58007 FZRANO
PAAK 231356Z AUTO 29013G19KT 10SM OVC049 02/M03 A3001 RMK AO2 PK WND 27026/1306 UPE1257SNB1257E24 SLP164 P0000 T00171028 FZRANO
PAAK 231327Z AUTO 29013KT 9SM FEW006 SCT013 OVC047 01/M02 A3001 RMK AO2 PK WND 27026/1306 UPE1257SNB1257E24 P0000 FZRANO
PAAK 231312Z AUTO 26018G26KT 1 1/2SM -SN BR SCT007 BKN015 OVC041 01/M01 A3001 RMK AO2 PK WND 27026/1306 UPE1257SNB1257 P0000 FZRANO
PAAK 231305Z AUTO 27021G24KT 2SM -SN BR FEW005 BKN013 OVC050 01/M01 A3001 RMK AO2 VIS 1 1/4V4 UPE1257SNB1257 P0000 FZRANO
PAAK 231300Z AUTO 29015G21KT 1 3/4SM -SN BR FEW008 BKN015 OVC050 01/M01 A3002 RMK AO2 UPE1257SNB1257 P0000 FZRANO
PAAK 231256Z AUTO 30015G21KT 2 1/2SM UP SCT013 SCT022 BKN029 02/M02 A3002 RMK AO2 RAE1159B46E55UPB55 SLP168 P0000 T00171017 FZRANO
PAAK 231156Z AUTO 32014G19KT 10SM -RA FEW023 SCT039 BKN049 02/M02 A3003 RMK AO2 RAB26E28B49SNE06B28E38 SLP170 P0000 60000 70002 T00221017 10028 20006 53006 FZRANO
PAAK 231059Z AUTO 29010KT 3SM -SN BR SCT008 SCT018 BKN060 01/M01 A3002 RMK AO2 P0000 FZRANO
PAAK 231056Z AUTO 30009KT 1 3/4SM -SN BR SCT008 BKN015 BKN055 01/M01 A3002 RMK AO2 PK WND 31028/1043 RAB24E47SNB47 SLP166 P0000 T00061006 FZRANO
PAAK 231052Z AUTO 31014G28KT 1 3/4SM -SN BR SCT008 SCT012 BKN028 01/M01 A3002 RMK AO2 PK WND 31028/1043 RAB24E47SNB47 P0000 FZRANO
PAAK 231050Z AUTO 31015G28KT 2SM -SN BR SCT010 BKN028 01/M01 A3003 RMK AO2 PK WND 31028/1043 RAB24E47SNB47 P0000 FZRANO
PAAK 230956Z AUTO 30015KT 10SM FEW034 SCT065 BKN085 02/M03 A3001 RMK AO2 RAB41E53 SLP163 P0000 T00221033 400390006 FZRANO
PAAK 230856Z AUTO 30011KT 10SM SCT028 SCT034 BKN050 02/M02 A3001 RMK AO2 SLP163 60000 T00221022 53013 FZRANO
PAAK 230556Z AUTO 30015G22KT 10SM FEW030 SCT039 02/M02 A2997 RMK AO2 PK WND 31028/0513 UPB20E22SNE20 SLP150 P0000 60001 T00221022 10039 20011 53012 FZRANO
PAAK 230526Z AUTO 30019G25KT 10SM SCT027 BKN041 BKN055 02/M02 A2996 RMK AO2 PK WND 31028/0513 UPB20E22SNE20 P0000 FZRANO
PAAK 230514Z AUTO 30023G28KT 5SM -SN FEW010 BKN025 OVC065 02/M02 A2996 RMK AO2 PK WND 31028/0513 P0000 FZRANO
PAAK 230456Z AUTO 32012G21KT 4SM -SN SCT012 BKN034 BKN060 01/M02 A2995 RMK AO2 PK WND 31028/0444 RAB16E45SNE08B45 SLP144 P0000 T00111022 FZRANO
PAAK 230444Z AUTO 31024G28KT 1 3/4SM -RA FEW011 SCT024 BKN034 02/M02 A2996 RMK AO2 PK WND 31028/0444 RAB16SNE08 PRESRR P0000 FZRANO
PAAK 230431Z AUTO 31016G20KT 10SM -RA FEW026 BKN034 OVC060 02/M02 A2994 RMK AO2 RAB16SNE08 P0000 FZRANO
PAAK 230358Z AUTO 30010KT 3SM -SN BR SCT012 BKN023 OVC027 01/M01 A2993 RMK AO2 P0000 FZRANO
PAAK 230356Z AUTO 30008KT 1 3/4SM -SN BR SCT012 BKN023 OVC028 01/M01 A2993 RMK AO2 PK WND 29026/0344 RAB25E39SNB39 SLP137 P0001 T00111006 FZRANO
PAAK 230345Z AUTO 29020G26KT 1SM -SN FEW012 BKN025 OVC033 01/M02 A2993 RMK AO2 PK WND 29026/0344 VIS 1/2V5 RAB25E39SNB39 P0001 FZRANO
PAAK 230341Z AUTO 32011KT 2 1/2SM -SN FEW012 SCT021 BKN028 02/M02 A2993 RMK AO2 RAB25E39SNB39 P0000 FZRANO
PAAK 230333Z AUTO 34014KT 4SM -RA FEW015 SCT021 BKN027 02/M02 A2994 RMK AO2 RAB25 P0000 FZRANO
PAAK 230256Z AUTO 29015G24KT 10SM FEW035 BKN046 BKN055 02/M02 A2991 RMK AO2 RAB35E47 SLP131 P0000 60000 T00221017 53012 FZRANO
PAAK 230156Z AUTO 31015G21KT 10SM BKN036 03/M03 A2989 RMK AO2 PK WND 32026/0104 SLP123 T00331033
PAAK 230056Z AUTO 31022G27KT 10SM FEW036 BKN045 04/M03 A2988 RMK AO2 PK WND 30027/0048 SLP121 T00391033
PAAK 222256Z AUTO 33016G23KT 4SM -RA FEW017 SCT026 BKN034 02/M02 A2988 RMK AO2 PK WND 31033/2159 RAE05B51UPB05E07SNB07E32 SLP119 P0000 T00171017 FZRANO
PAAK 222233Z AUTO 32010KT 9SM FEW010 SCT021 BKN044 02/M02 A2987 RMK AO2 PK WND 31033/2159 RAE05UPB05E07SNB07E32 P0000 FZRANO
PAAK 222226Z AUTO 30012KT 6SM -SN FEW010 BKN020 BKN032 01/M02 A2987 RMK AO2 PK WND 31033/2159 RAE05UPB05E07SNB07 P0000 FZRANO
PAAK 222218Z AUTO 30014G24KT 2SM -SN BR BKN010 BKN020 OVC035 01/M02 A2986 RMK AO2 PK WND 31033/2159 RAE05UPB05E07SNB07 CIG 006V016 P0000 FZRANO
PAAK 222216Z AUTO 30015G24KT 1 1/4SM -SN SCT010 BKN017 OVC035 01/M02 A2987 RMK AO2 PK WND 31033/2159 RAE05UPB05E07SNB07 CIG 013V023 P0000 FZRANO
PAAK 222212Z AUTO 29018G32KT 1SM -SN BR BKN010 BKN016 OVC028 01/M02 A2987 RMK AO2 PK WND 31033/2159 RAE05UPB05E07SNB07 CIG 006V012 P0000 FZRANO
PAAK 222206Z AUTO 31026G33KT 1 3/4SM UP BR SCT010 BKN018 OVC060 01/M01 A2988 RMK AO2 PK WND 31033/2159 VIS 1/2V5 RAE05UPB05 CIG 014V023 P0000 FZRANO
PAAK 222203Z AUTO 31025G33KT 3SM -RA BR FEW010 BKN029 OVC060 01/M01 A2987 RMK AO2 PK WND 31033/2159 PRESRR P0000 FZRANO
PAAK 222156Z AUTO 31028G33KT 6SM -RA FEW012 SCT029 BKN041 03/M02 A2987 RMK AO2 PK WND 31033/2156 RAE02B55 SLP117 P0000 T00281017
PAAK 222120Z AUTO 30020G26KT 10SM SCT029 BKN038 04/M03 A2985 RMK AO2 PK WND 30026/2120 RAE02 P0000
PAAK 222056Z AUTO 29019G25KT 4SM -RA BKN029 BKN040 OVC050 03/M03 A2985 RMK AO2 PK WND 30026/2017 RAB38 SLP109 P0000 60000 T00281028 53007
PAAK 221956Z AUTO 31018G27KT 10SM FEW029 BKN036 03/M04 A2984 RMK AO2 PK WND 30027/1954 SLP104 T00331039
PAAK 221954Z AUTO 31020G27KT 10SM SCT029 BKN036 03/M04 A2984 RMK AO2 PK WND 30027/1954
PAAK 221931Z AUTO 31016G26KT 10SM BKN029 03/M02 A2984 RMK AO2 PK WND 30026/1922
PAAK 221856Z AUTO 32009G19KT 10SM SCT029 BKN041 OVC100 02/M03 A2983 RMK AO2 PK WND 32028/1846 UPE02 SLP102 P0000 T00171033 FZRANO
PAAK 221756Z AUTO 31015G29KT 4SM UP FEW015 SCT033 BKN090 02/M03 A2982 RMK AO2 PK WND 32029/1748 RAB45E54UPB54 SLP098 P0001 60001 T00171033 10028 20011 53007 FZRANO
PAAK 221656Z AUTO 29012G19KT 10SM FEW014 SCT036 BKN050 02/M03 A2980 RMK AO2 PK WND 33026/1623 RAB21E26SNB26E43 SLP093 P0000 T00171028 FZRANO
PAAK 221645Z AUTO 29016G19KT 9SM FEW014 SCT025 BKN039 01/M03 A2980 RMK AO2 PK WND 33026/1623 RAB21E26SNB26E43 P0000 FZRANO
PAAK 221556Z AUTO 29015G21KT 10SM FEW021 SCT037 BKN046 02/M02 A2980 RMK AO2 PK WND 29026/1513 SLP094 T00171022 FZRANO
PAAK 221503Z AUTO 30017G25KT 10SM SCT030 BKN049 02/M03 A2980 RMK AO2 FZRANO
PAAK 221456Z AUTO 30019G25KT 10SM BKN028 BKN035 03/M04 A2980 RMK AO2 SLP091 60000 T00281039 53003
PAAK 221453Z AUTO 30020G24KT 10SM BKN028 BKN035 03/M03 A2979 RMK AO2
PAAK 221356Z AUTO 30020G25KT 10SM SCT036 BKN050 BKN075 02/M02 A2979 RMK AO2 PK WND 30028/1346 RAB13E40 SLP088 P0000 T00221017 FZRANO
PAAK 221256Z AUTO 28012G19KT 10SM FEW013 SCT024 BKN038 02/M03 A2979 RMK AO2 RAB26E35UPB35E43 SLP088 P0000 T00221028 FZRANO
PAAK 221246Z AUTO 27013KT 10SM FEW013 BKN026 OVC120 01/M02 A2978 RMK AO2 RAB26E35UPB35E43 CIG 020V036 P0000 FZRANO
PAAK 221156Z AUTO 29008KT 10SM FEW035 02/M03 A2978 RMK AO2 RAE06 SLP086 P0000 60002 70013 T00171033 10028 20006 50009 FZRANO
PAAK 221056Z AUTO 31021G27KT 9SM -RA FEW015 BKN036 OVC048 02/M01 A2979 RMK AO2 PK WND 30030/1043 UPB24E26RAB26E28B45SNE06B28E43 SLP088 P0001 T00171011 FZRANO
PAAK 221006Z AUTO 32008KT 9SM SCT025 BKN032 OVC055 01/M02 A2977 RMK AO2 SNE06 P0000 FZRANO
PAAK 220956Z AUTO 30007KT 260V340 4SM -SN BR FEW011 BKN024 OVC047 01/M01 A2977 RMK AO2 UPB0857E0859RAB0859E20SNE0857B01 SLP083 P0001 T00111011 400390006 FZRANO
PAAK 220935Z AUTO 27008KT 3SM -SN BR SCT006 BKN017 OVC060 01/M01 A2977 RMK AO2 UPB0857E0859RAB0859E20SNE0857B01 CIG 012V022 P0000 FZRANO
PAAK 220928Z AUTO 31007KT 1 1/4SM -SN BR SCT006 BKN015 OVC050 01/M01 A2977 RMK AO2 UPB0857E0859RAB0859E20SNE0857B01 P0000 FZRANO
PAAK 220921Z AUTO 32010KT 2SM -SN BR FEW004 BKN026 OVC060 01/M01 A2977 RMK AO2 UPB0857E0859RAB0859E20SNE0857B01 P0000 FZRANO
PAAK 220918Z AUTO 34015KT 5SM -RA SCT026 BKN034 OVC060 02/M02 A2978 RMK AO2 UPB0857E0859RAB0859SNE0857B01E11 P0000 FZRANO
PAAK 220905Z AUTO 31011G18KT 10SM -SN BKN026 BKN032 OVC038 01/M02 A2976 RMK AO2 UPB0857E0859RAB0859E01SNE0857B01 P0000 FZRANO
PAAK 220756Z AUTO 33010KT 7SM -SN FEW014 BKN034 OVC065 01/M02 A2976 RMK AO2 RAB40E45SNB45 SLP078 P0000 T00111017 FZRANO
PAAK 220656Z AUTO 33014KT 10SM FEW035 02/M04 A2974 RMK AO2 RAB0559E08B27E42UPB08E24 SLP073 P0000 T00171044 FZRANO
PAAK 220556Z AUTO 30012G17KT 10SM SCT040 BKN050 BKN065 03/M03 A2972 RMK AO2 RAE07B34E47UPB07E22SNB08E20 SLP067 P0000 60001 T00281028 10039 20017 51019
PAAK 220456Z AUTO 31013KT 10SM -RA FEW023 BKN038 OVC055 02/M02 A2971 RMK AO2 RAB55 SLP063 P0000 T00221022 FZRANO
PAAK 220356Z AUTO 32010KT 10SM BKN032 BKN041 02/M02 A2969 RMK AO2 RAB14E39UPB24E47 SLP056 P0001 T00221017 FZRANO